sensor_id;sensor_type;location;lat;lon;timestamp;P1;durP1;ratioP1;P2;durP2;ratioP2
21018;SDS011;10667;51.056;3.732;2024-02-04T00:01:29;30.73;;;11.20;;
21018;SDS011;10667;51.056;3.732;2024-02-04T00:03:54;22.75;;;10.02;;
21018;SDS011;10667;51.056;3.732;2024-02-04T00:06:20;23.67;;;9.90;;
21018;SDS011;10667;51.056;3.732;2024-02-04T00:08:46;24.98;;;11.10;;
21018;SDS011;10667;51.056;3.732;2024-02-04T00:11:11;21.52;;;9.88;;
21018;SDS011;10667;51.056;3.732;2024-02-04T00:13:37;25.95;;;10.73;;
21018;SDS011;10667;51.056;3.732;2024-02-04T00:16:03;34.47;;;10.70;;
21018;SDS011;10667;51.056;3.732;2024-02-04T00:18:30;22.17;;;10.20;;
21018;SDS011;10667;51.056;3.732;2024-02-04T00:20:56;26.60;;;10.18;;
21018;SDS011;10667;51.056;3.732;2024-02-04T00:23:21;30.60;;;11.35;;
21018;SDS011;10667;51.056;3.732;2024-02-04T00:25:47;25.13;;;10.77;;
21018;SDS011;10667;51.056;3.732;2024-02-04T00:28:12;29.98;;;11.32;;
21018;SDS011;10667;51.056;3.732;2024-02-04T00:30:38;31.10;;;12.00;;
21018;SDS011;10667;51.056;3.732;2024-02-04T00:33:04;26.98;;;11.13;;
21018;SDS011;10667;51.056;3.732;2024-02-04T00:35:30;35.63;;;11.85;;
21018;SDS011;10667;51.056;3.732;2024-02-04T00:37:56;30.15;;;11.70;;
21018;SDS011;10667;51.056;3.732;2024-02-04T00:40:22;30.20;;;12.90;;
21018;SDS011;10667;51.056;3.732;2024-02-04T00:42:47;32.22;;;12.43;;
21018;SDS011;10667;51.056;3.732;2024-02-04T00:45:13;41.15;;;12.90;;
21018;SDS011;10667;51.056;3.732;2024-02-04T00:47:39;36.25;;;13.25;;
21018;SDS011;10667;51.056;3.732;2024-02-04T00:50:05;34.15;;;13.02;;
21018;SDS011;10667;51.056;3.732;2024-02-04T00:52:31;30.98;;;12.88;;
21018;SDS011;10667;51.056;3.732;2024-02-04T00:54:57;35.75;;;13.20;;
21018;SDS011;10667;51.056;3.732;2024-02-04T00:57:22;35.72;;;12.77;;
21018;SDS011;10667;51.056;3.732;2024-02-04T00:59:48;36.80;;;12.95;;
21018;SDS011;10667;51.056;3.732;2024-02-04T01:02:15;33.20;;;13.45;;
21018;SDS011;10667;51.056;3.732;2024-02-04T01:04:41;38.97;;;14.40;;
21018;SDS011;10667;51.056;3.732;2024-02-04T01:07:06;39.67;;;14.63;;
21018;SDS011;10667;51.056;3.732;2024-02-04T01:09:32;35.72;;;15.18;;
21018;SDS011;10667;51.056;3.732;2024-02-04T01:11:57;41.85;;;15.30;;
21018;SDS011;10667;51.056;3.732;2024-02-04T01:14:23;42.08;;;15.77;;
21018;SDS011;10667;51.056;3.732;2024-02-04T01:16:49;46.90;;;16.02;;
21018;SDS011;10667;51.056;3.732;2024-02-04T01:19:14;39.42;;;16.10;;
21018;SDS011;10667;51.056;3.732;2024-02-04T01:21:40;32.70;;;14.85;;
21018;SDS011;10667;51.056;3.732;2024-02-04T01:24:06;40.45;;;15.32;;
21018;SDS011;10667;51.056;3.732;2024-02-04T01:26:31;43.42;;;15.90;;
21018;SDS011;10667;51.056;3.732;2024-02-04T01:28:57;42.15;;;16.00;;
21018;SDS011;10667;51.056;3.732;2024-02-04T01:31:23;37.13;;;16.77;;
21018;SDS011;10667;51.056;3.732;2024-02-04T01:33:48;39.75;;;16.27;;
21018;SDS011;10667;51.056;3.732;2024-02-04T01:36:14;35.90;;;15.80;;
21018;SDS011;10667;51.056;3.732;2024-02-04T01:38:40;35.30;;;16.92;;
21018;SDS011;10667;51.056;3.732;2024-02-04T01:41:05;36.28;;;15.90;;
21018;SDS011;10667;51.056;3.732;2024-02-04T01:43:31;42.08;;;16.35;;
21018;SDS011;10667;51.056;3.732;2024-02-04T01:45:56;39.70;;;15.35;;
21018;SDS011;10667;51.056;3.732;2024-02-04T01:48:22;44.80;;;17.40;;
21018;SDS011;10667;51.056;3.732;2024-02-04T01:50:49;41.72;;;17.33;;
21018;SDS011;10667;51.056;3.732;2024-02-04T01:53:17;30.27;;;14.93;;
21018;SDS011;10667;51.056;3.732;2024-02-04T01:55:46;43.65;;;15.80;;
21018;SDS011;10667;51.056;3.732;2024-02-04T01:58:14;32.95;;;15.32;;
21018;SDS011;10667;51.056;3.732;2024-02-04T02:00:40;40.75;;;15.60;;
21018;SDS011;10667;51.056;3.732;2024-02-04T02:03:06;37.08;;;15.57;;
21018;SDS011;10667;51.056;3.732;2024-02-04T02:05:33;44.00;;;15.48;;
21018;SDS011;10667;51.056;3.732;2024-02-04T02:07:59;35.47;;;15.80;;
21018;SDS011;10667;51.056;3.732;2024-02-04T02:10:25;32.42;;;15.00;;
21018;SDS011;10667;51.056;3.732;2024-02-04T02:12:52;32.30;;;14.00;;
21018;SDS011;10667;51.056;3.732;2024-02-04T02:15:30;37.13;;;14.15;;
21018;SDS011;10667;51.056;3.732;2024-02-04T02:18:07;32.42;;;13.45;;
21018;SDS011;10667;51.056;3.732;2024-02-04T02:23:29;36.03;;;12.95;;
21018;SDS011;10667;51.056;3.732;2024-02-04T02:25:59;30.30;;;12.35;;
21018;SDS011;10667;51.056;3.732;2024-02-04T02:28:25;28.92;;;11.77;;
21018;SDS011;10667;51.056;3.732;2024-02-04T02:30:51;35.05;;;11.60;;
21018;SDS011;10667;51.056;3.732;2024-02-04T02:33:16;38.72;;;11.65;;
21018;SDS011;10667;51.056;3.732;2024-02-04T02:35:43;21.48;;;10.18;;
21018;SDS011;10667;51.056;3.732;2024-02-04T02:38:28;30.90;;;12.05;;
21018;SDS011;10667;51.056;3.732;2024-02-04T02:41:03;35.33;;;11.57;;
21018;SDS011;10667;51.056;3.732;2024-02-04T02:43:31;28.17;;;10.98;;
21018;SDS011;10667;51.056;3.732;2024-02-04T02:45:58;30.92;;;11.25;;
21018;SDS011;10667;51.056;3.732;2024-02-04T02:48:24;32.53;;;11.07;;
21018;SDS011;10667;51.056;3.732;2024-02-04T02:50:50;28.67;;;11.00;;
21018;SDS011;10667;51.056;3.732;2024-02-04T02:53:15;29.25;;;10.77;;
21018;SDS011;10667;51.056;3.732;2024-02-04T02:55:44;33.05;;;10.30;;
21018;SDS011;10667;51.056;3.732;2024-02-04T02:58:11;29.92;;;9.48;;
21018;SDS011;10667;51.056;3.732;2024-02-04T03:00:37;34.67;;;9.38;;
21018;SDS011;10667;51.056;3.732;2024-02-04T03:03:03;27.10;;;9.57;;
21018;SDS011;10667;51.056;3.732;2024-02-04T03:05:29;26.25;;;9.40;;
21018;SDS011;10667;51.056;3.732;2024-02-04T03:07:55;28.15;;;9.52;;
21018;SDS011;10667;51.056;3.732;2024-02-04T03:10:20;25.58;;;9.38;;
21018;SDS011;10667;51.056;3.732;2024-02-04T03:12:46;18.63;;;8.95;;
21018;SDS011;10667;51.056;3.732;2024-02-04T03:15:12;23.73;;;8.70;;
21018;SDS011;10667;51.056;3.732;2024-02-04T03:17:37;22.48;;;9.20;;
21018;SDS011;10667;51.056;3.732;2024-02-04T03:20:03;21.27;;;8.70;;
21018;SDS011;10667;51.056;3.732;2024-02-04T03:22:29;24.17;;;9.55;;
21018;SDS011;10667;51.056;3.732;2024-02-04T03:24:55;22.17;;;10.15;;
21018;SDS011;10667;51.056;3.732;2024-02-04T03:27:20;24.88;;;10.43;;
21018;SDS011;10667;51.056;3.732;2024-02-04T03:29:46;25.20;;;11.88;;
21018;SDS011;10667;51.056;3.732;2024-02-04T03:32:12;25.63;;;11.27;;
21018;SDS011;10667;51.056;3.732;2024-02-04T03:34:37;24.98;;;10.90;;
21018;SDS011;10667;51.056;3.732;2024-02-04T03:37:04;22.33;;;11.95;;
21018;SDS011;10667;51.056;3.732;2024-02-04T03:39:30;34.85;;;12.40;;
21018;SDS011;10667;51.056;3.732;2024-02-04T03:41:56;22.15;;;11.75;;
21018;SDS011;10667;51.056;3.732;2024-02-04T03:44:21;29.67;;;11.55;;
21018;SDS011;10667;51.056;3.732;2024-02-04T03:46:48;31.27;;;12.25;;
21018;SDS011;10667;51.056;3.732;2024-02-04T03:49:14;22.98;;;11.18;;
21018;SDS011;10667;51.056;3.732;2024-02-04T03:51:39;36.55;;;12.60;;
21018;SDS011;10667;51.056;3.732;2024-02-04T03:54:05;27.88;;;11.60;;
21018;SDS011;10667;51.056;3.732;2024-02-04T03:56:31;34.55;;;12.45;;
21018;SDS011;10667;51.056;3.732;2024-02-04T03:58:56;31.70;;;11.95;;
21018;SDS011;10667;51.056;3.732;2024-02-04T04:01:22;28.90;;;11.57;;
21018;SDS011;10667;51.056;3.732;2024-02-04T04:03:48;25.85;;;12.55;;
21018;SDS011;10667;51.056;3.732;2024-02-04T04:06:14;30.02;;;10.80;;
21018;SDS011;10667;51.056;3.732;2024-02-04T04:08:40;30.83;;;10.77;;
21018;SDS011;10667;51.056;3.732;2024-02-04T04:11:07;34.38;;;11.18;;
21018;SDS011;10667;51.056;3.732;2024-02-04T04:13:34;29.73;;;10.55;;
21018;SDS011;10667;51.056;3.732;2024-02-04T04:16:00;29.08;;;11.02;;
21018;SDS011;10667;51.056;3.732;2024-02-04T04:18:26;24.95;;;9.40;;
21018;SDS011;10667;51.056;3.732;2024-02-04T04:20:51;23.25;;;10.25;;
21018;SDS011;10667;51.056;3.732;2024-02-04T04:23:17;27.10;;;10.95;;
21018;SDS011;10667;51.056;3.732;2024-02-04T04:25:43;24.33;;;10.55;;
21018;SDS011;10667;51.056;3.732;2024-02-04T04:28:08;23.77;;;10.45;;
21018;SDS011;10667;51.056;3.732;2024-02-04T04:30:34;27.88;;;10.60;;
21018;SDS011;10667;51.056;3.732;2024-02-04T04:32:59;26.98;;;10.52;;
21018;SDS011;10667;51.056;3.732;2024-02-04T04:35:25;24.67;;;9.52;;
21018;SDS011;10667;51.056;3.732;2024-02-04T04:37:51;30.63;;;10.30;;
21018;SDS011;10667;51.056;3.732;2024-02-04T04:40:17;22.27;;;9.43;;
21018;SDS011;10667;51.056;3.732;2024-02-04T04:42:43;26.45;;;10.18;;
21018;SDS011;10667;51.056;3.732;2024-02-04T04:45:09;24.23;;;8.82;;
21018;SDS011;10667;51.056;3.732;2024-02-04T04:47:36;19.33;;;8.60;;
21018;SDS011;10667;51.056;3.732;2024-02-04T04:50:02;22.75;;;9.45;;
21018;SDS011;10667;51.056;3.732;2024-02-04T04:52:28;25.35;;;9.10;;
21018;SDS011;10667;51.056;3.732;2024-02-04T04:54:54;25.58;;;9.23;;
21018;SDS011;10667;51.056;3.732;2024-02-04T04:57:20;21.70;;;8.13;;
21018;SDS011;10667;51.056;3.732;2024-02-04T04:59:46;29.13;;;7.97;;
21018;SDS011;10667;51.056;3.732;2024-02-04T05:02:12;25.70;;;7.68;;
21018;SDS011;10667;51.056;3.732;2024-02-04T05:04:37;23.55;;;8.43;;
21018;SDS011;10667;51.056;3.732;2024-02-04T05:07:03;25.02;;;8.32;;
21018;SDS011;10667;51.056;3.732;2024-02-04T05:09:29;23.23;;;7.05;;
21018;SDS011;10667;51.056;3.732;2024-02-04T05:11:54;24.65;;;7.50;;
21018;SDS011;10667;51.056;3.732;2024-02-04T05:14:20;23.70;;;8.23;;
21018;SDS011;10667;51.056;3.732;2024-02-04T05:16:46;20.00;;;7.75;;
21018;SDS011;10667;51.056;3.732;2024-02-04T05:19:12;17.67;;;7.45;;
21018;SDS011;10667;51.056;3.732;2024-02-04T05:21:38;22.58;;;7.88;;
21018;SDS011;10667;51.056;3.732;2024-02-04T05:24:05;17.15;;;7.35;;
21018;SDS011;10667;51.056;3.732;2024-02-04T05:26:31;24.58;;;7.80;;
21018;SDS011;10667;51.056;3.732;2024-02-04T05:28:56;21.38;;;7.65;;
21018;SDS011;10667;51.056;3.732;2024-02-04T05:31:22;22.38;;;7.55;;
21018;SDS011;10667;51.056;3.732;2024-02-04T05:33:47;26.95;;;8.65;;
21018;SDS011;10667;51.056;3.732;2024-02-04T05:36:13;23.70;;;8.07;;
21018;SDS011;10667;51.056;3.732;2024-02-04T05:38:39;16.73;;;7.45;;
21018;SDS011;10667;51.056;3.732;2024-02-04T05:41:07;21.83;;;7.47;;
21018;SDS011;10667;51.056;3.732;2024-02-04T05:43:33;23.35;;;9.18;;
21018;SDS011;10667;51.056;3.732;2024-02-04T05:45:58;20.38;;;8.40;;
21018;SDS011;10667;51.056;3.732;2024-02-04T05:48:24;19.52;;;7.47;;
21018;SDS011;10667;51.056;3.732;2024-02-04T05:50:49;24.95;;;8.23;;
21018;SDS011;10667;51.056;3.732;2024-02-04T05:53:15;25.88;;;8.30;;
21018;SDS011;10667;51.056;3.732;2024-02-04T05:55:41;18.50;;;7.60;;
21018;SDS011;10667;51.056;3.732;2024-02-04T05:58:06;22.98;;;8.18;;
21018;SDS011;10667;51.056;3.732;2024-02-04T06:00:32;17.95;;;8.23;;
21018;SDS011;10667;51.056;3.732;2024-02-04T06:02:57;20.80;;;7.65;;
21018;SDS011;10667;51.056;3.732;2024-02-04T06:05:23;20.20;;;8.07;;
21018;SDS011;10667;51.056;3.732;2024-02-04T06:07:49;18.58;;;7.90;;
21018;SDS011;10667;51.056;3.732;2024-02-04T06:10:14;22.83;;;7.95;;
21018;SDS011;10667;51.056;3.732;2024-02-04T06:12:40;27.58;;;8.13;;
21018;SDS011;10667;51.056;3.732;2024-02-04T06:15:13;24.33;;;8.38;;
21018;SDS011;10667;51.056;3.732;2024-02-04T06:17:39;19.73;;;7.05;;
21018;SDS011;10667;51.056;3.732;2024-02-04T06:20:05;18.73;;;8.80;;
21018;SDS011;10667;51.056;3.732;2024-02-04T06:22:31;24.58;;;8.90;;
21018;SDS011;10667;51.056;3.732;2024-02-04T06:24:57;26.30;;;9.18;;
21018;SDS011;10667;51.056;3.732;2024-02-04T06:27:23;18.98;;;9.02;;
21018;SDS011;10667;51.056;3.732;2024-02-04T06:29:48;20.17;;;8.18;;
21018;SDS011;10667;51.056;3.732;2024-02-04T06:32:14;25.00;;;8.73;;
21018;SDS011;10667;51.056;3.732;2024-02-04T06:34:39;18.55;;;9.35;;
21018;SDS011;10667;51.056;3.732;2024-02-04T06:37:05;18.52;;;8.73;;
21018;SDS011;10667;51.056;3.732;2024-02-04T06:39:31;19.77;;;8.75;;
21018;SDS011;10667;51.056;3.732;2024-02-04T06:41:56;21.20;;;8.15;;
21018;SDS011;10667;51.056;3.732;2024-02-04T06:44:22;22.75;;;8.05;;
21018;SDS011;10667;51.056;3.732;2024-02-04T06:46:47;18.67;;;7.78;;
21018;SDS011;10667;51.056;3.732;2024-02-04T06:49:13;15.50;;;7.53;;
21018;SDS011;10667;51.056;3.732;2024-02-04T06:51:43;16.50;;;7.25;;
21018;SDS011;10667;51.056;3.732;2024-02-04T06:54:09;16.65;;;6.82;;
21018;SDS011;10667;51.056;3.732;2024-02-04T06:56:35;13.35;;;6.18;;
21018;SDS011;10667;51.056;3.732;2024-02-04T06:59:02;11.75;;;5.47;;
21018;SDS011;10667;51.056;3.732;2024-02-04T07:01:27;14.43;;;6.05;;
21018;SDS011;10667;51.056;3.732;2024-02-04T07:03:53;15.40;;;5.80;;
21018;SDS011;10667;51.056;3.732;2024-02-04T07:06:18;12.00;;;5.40;;
21018;SDS011;10667;51.056;3.732;2024-02-04T07:08:44;12.43;;;5.45;;
21018;SDS011;10667;51.056;3.732;2024-02-04T07:11:10;11.60;;;5.10;;
21018;SDS011;10667;51.056;3.732;2024-02-04T07:13:35;14.48;;;5.03;;
21018;SDS011;10667;51.056;3.732;2024-02-04T07:16:01;10.65;;;4.35;;
21018;SDS011;10667;51.056;3.732;2024-02-04T07:18:26;11.95;;;4.45;;
21018;SDS011;10667;51.056;3.732;2024-02-04T07:20:52;8.57;;;4.22;;
21018;SDS011;10667;51.056;3.732;2024-02-04T07:23:18;13.18;;;5.07;;
21018;SDS011;10667;51.056;3.732;2024-02-04T07:25:43;8.50;;;4.32;;
21018;SDS011;10667;51.056;3.732;2024-02-04T07:28:09;12.55;;;4.72;;
21018;SDS011;10667;51.056;3.732;2024-02-04T07:30:35;9.38;;;4.18;;
21018;SDS011;10667;51.056;3.732;2024-02-04T07:33:00;12.88;;;4.63;;
21018;SDS011;10667;51.056;3.732;2024-02-04T07:35:26;12.05;;;4.30;;
21018;SDS011;10667;51.056;3.732;2024-02-04T07:37:51;10.85;;;4.60;;
21018;SDS011;10667;51.056;3.732;2024-02-04T07:40:17;10.95;;;4.00;;
21018;SDS011;10667;51.056;3.732;2024-02-04T07:42:43;12.05;;;4.25;;
21018;SDS011;10667;51.056;3.732;2024-02-04T07:45:08;13.38;;;4.68;;
21018;SDS011;10667;51.056;3.732;2024-02-04T07:47:35;11.52;;;4.13;;
21018;SDS011;10667;51.056;3.732;2024-02-04T07:50:01;9.73;;;4.05;;
21018;SDS011;10667;51.056;3.732;2024-02-04T07:52:26;13.05;;;3.65;;
21018;SDS011;10667;51.056;3.732;2024-02-04T07:54:52;7.20;;;3.33;;
21018;SDS011;10667;51.056;3.732;2024-02-04T07:57:18;6.00;;;3.03;;
21018;SDS011;10667;51.056;3.732;2024-02-04T07:59:43;11.95;;;3.58;;
21018;SDS011;10667;51.056;3.732;2024-02-04T08:02:09;10.50;;;3.50;;
21018;SDS011;10667;51.056;3.732;2024-02-04T08:04:34;10.73;;;3.35;;
21018;SDS011;10667;51.056;3.732;2024-02-04T08:07:00;9.88;;;3.28;;
21018;SDS011;10667;51.056;3.732;2024-02-04T08:09:25;8.73;;;3.25;;
21018;SDS011;10667;51.056;3.732;2024-02-04T08:11:51;10.18;;;3.15;;
21018;SDS011;10667;51.056;3.732;2024-02-04T08:14:17;13.02;;;3.35;;
21018;SDS011;10667;51.056;3.732;2024-02-04T08:16:43;16.75;;;3.63;;
21018;SDS011;10667;51.056;3.732;2024-02-04T08:19:11;9.30;;;3.58;;
21018;SDS011;10667;51.056;3.732;2024-02-04T08:21:37;7.90;;;3.10;;
21018;SDS011;10667;51.056;3.732;2024-02-04T08:24:02;10.30;;;2.88;;
21018;SDS011;10667;51.056;3.732;2024-02-04T08:26:28;9.73;;;3.75;;
21018;SDS011;10667;51.056;3.732;2024-02-04T08:28:53;10.23;;;3.65;;
21018;SDS011;10667;51.056;3.732;2024-02-04T08:31:19;7.25;;;3.47;;
21018;SDS011;10667;51.056;3.732;2024-02-04T08:33:46;9.20;;;3.80;;
21018;SDS011;10667;51.056;3.732;2024-02-04T08:36:11;11.35;;;3.85;;
21018;SDS011;10667;51.056;3.732;2024-02-04T08:38:37;11.43;;;4.38;;
21018;SDS011;10667;51.056;3.732;2024-02-04T08:41:03;9.25;;;3.72;;
21018;SDS011;10667;51.056;3.732;2024-02-04T08:43:29;8.25;;;4.07;;
21018;SDS011;10667;51.056;3.732;2024-02-04T08:45:54;10.15;;;3.85;;
21018;SDS011;10667;51.056;3.732;2024-02-04T08:48:20;9.60;;;4.65;;
21018;SDS011;10667;51.056;3.732;2024-02-04T08:50:46;12.68;;;5.07;;
21018;SDS011;10667;51.056;3.732;2024-02-04T08:53:11;12.82;;;4.63;;
21018;SDS011;10667;51.056;3.732;2024-02-04T08:55:37;10.07;;;4.65;;
21018;SDS011;10667;51.056;3.732;2024-02-04T08:58:03;11.30;;;4.47;;
21018;SDS011;10667;51.056;3.732;2024-02-04T09:00:29;9.93;;;4.20;;
21018;SDS011;10667;51.056;3.732;2024-02-04T09:02:54;13.20;;;4.07;;
21018;SDS011;10667;51.056;3.732;2024-02-04T09:05:20;10.00;;;4.53;;
21018;SDS011;10667;51.056;3.732;2024-02-04T09:07:46;11.55;;;4.07;;
21018;SDS011;10667;51.056;3.732;2024-02-04T09:10:12;12.13;;;4.20;;
21018;SDS011;10667;51.056;3.732;2024-02-04T09:12:38;14.23;;;3.65;;
21018;SDS011;10667;51.056;3.732;2024-02-04T09:15:04;11.27;;;3.97;;
21018;SDS011;10667;51.056;3.732;2024-02-04T09:17:30;18.08;;;5.43;;
21018;SDS011;10667;51.056;3.732;2024-02-04T09:19:58;8.63;;;3.22;;
21018;SDS011;10667;51.056;3.732;2024-02-04T09:22:24;7.95;;;3.63;;
21018;SDS011;10667;51.056;3.732;2024-02-04T09:24:50;8.73;;;3.58;;
21018;SDS011;10667;51.056;3.732;2024-02-04T09:27:15;9.48;;;3.65;;
21018;SDS011;10667;51.056;3.732;2024-02-04T09:29:41;7.97;;;3.58;;
21018;SDS011;10667;51.056;3.732;2024-02-04T09:32:07;8.60;;;3.10;;
21018;SDS011;10667;51.056;3.732;2024-02-04T09:34:33;9.73;;;3.30;;
21018;SDS011;10667;51.056;3.732;2024-02-04T09:36:58;11.02;;;2.88;;
21018;SDS011;10667;51.056;3.732;2024-02-04T09:39:24;7.20;;;2.88;;
21018;SDS011;10667;51.056;3.732;2024-02-04T09:41:50;8.55;;;3.38;;
21018;SDS011;10667;51.056;3.732;2024-02-04T09:44:15;6.88;;;2.90;;
21018;SDS011;10667;51.056;3.732;2024-02-04T09:46:42;7.78;;;2.90;;
21018;SDS011;10667;51.056;3.732;2024-02-04T09:49:08;6.40;;;2.80;;
21018;SDS011;10667;51.056;3.732;2024-02-04T09:51:34;5.55;;;2.47;;
21018;SDS011;10667;51.056;3.732;2024-02-04T09:54:03;10.27;;;2.97;;
21018;SDS011;10667;51.056;3.732;2024-02-04T09:56:32;7.97;;;2.53;;
21018;SDS011;10667;51.056;3.732;2024-02-04T09:59:00;9.43;;;3.15;;
21018;SDS011;10667;51.056;3.732;2024-02-04T10:01:26;7.72;;;2.88;;
21018;SDS011;10667;51.056;3.732;2024-02-04T10:03:51;8.02;;;2.65;;
21018;SDS011;10667;51.056;3.732;2024-02-04T10:06:17;5.65;;;2.55;;
21018;SDS011;10667;51.056;3.732;2024-02-04T10:08:43;10.43;;;2.80;;
21018;SDS011;10667;51.056;3.732;2024-02-04T10:11:11;7.75;;;2.60;;
21018;SDS011;10667;51.056;3.732;2024-02-04T10:13:44;10.88;;;3.53;;
21018;SDS011;10667;51.056;3.732;2024-02-04T10:16:09;9.75;;;3.13;;
21018;SDS011;10667;51.056;3.732;2024-02-04T10:18:36;11.18;;;3.10;;
21018;SDS011;10667;51.056;3.732;2024-02-04T10:21:02;10.20;;;3.45;;
21018;SDS011;10667;51.056;3.732;2024-02-04T10:23:27;9.85;;;4.15;;
21018;SDS011;10667;51.056;3.732;2024-02-04T10:25:59;9.90;;;2.97;;
21018;SDS011;10667;51.056;3.732;2024-02-04T10:28:25;7.93;;;3.25;;
21018;SDS011;10667;51.056;3.732;2024-02-04T10:30:50;9.38;;;3.30;;
21018;SDS011;10667;51.056;3.732;2024-02-04T10:33:17;7.30;;;2.85;;
21018;SDS011;10667;51.056;3.732;2024-02-04T10:35:42;10.02;;;3.22;;
21018;SDS011;10667;51.056;3.732;2024-02-04T10:38:08;9.25;;;3.35;;
21018;SDS011;10667;51.056;3.732;2024-02-04T10:40:35;9.23;;;2.90;;
21018;SDS011;10667;51.056;3.732;2024-02-04T10:43:03;7.18;;;3.00;;
21018;SDS011;10667;51.056;3.732;2024-02-04T10:45:32;10.75;;;3.05;;
21018;SDS011;10667;51.056;3.732;2024-02-04T10:48:01;12.18;;;3.40;;
21018;SDS011;10667;51.056;3.732;2024-02-04T10:50:28;5.68;;;2.75;;
21018;SDS011;10667;51.056;3.732;2024-02-04T10:52:57;8.55;;;3.60;;
21018;SDS011;10667;51.056;3.732;2024-02-04T10:55:28;9.65;;;3.25;;
21018;SDS011;10667;51.056;3.732;2024-02-04T10:57:56;12.50;;;3.53;;
21018;SDS011;10667;51.056;3.732;2024-02-04T11:00:22;17.30;;;2.88;;
21018;SDS011;10667;51.056;3.732;2024-02-04T11:02:48;13.43;;;3.10;;
21018;SDS011;10667;51.056;3.732;2024-02-04T11:05:16;8.95;;;3.25;;
21018;SDS011;10667;51.056;3.732;2024-02-04T11:07:42;14.57;;;3.65;;
21018;SDS011;10667;51.056;3.732;2024-02-04T11:10:10;12.40;;;3.30;;
21018;SDS011;10667;51.056;3.732;2024-02-04T11:12:36;7.22;;;3.15;;
21018;SDS011;10667;51.056;3.732;2024-02-04T11:15:05;8.65;;;3.33;;
21018;SDS011;10667;51.056;3.732;2024-02-04T11:23:27;7.93;;;2.97;;
21018;SDS011;10667;51.056;3.732;2024-02-04T11:26:05;10.60;;;2.97;;
21018;SDS011;10667;51.056;3.732;2024-02-04T11:28:31;9.57;;;2.83;;
21018;SDS011;10667;51.056;3.732;2024-02-04T11:30:58;9.10;;;3.28;;
21018;SDS011;10667;51.056;3.732;2024-02-04T11:33:23;7.97;;;2.40;;
21018;SDS011;10667;51.056;3.732;2024-02-04T11:38:49;12.55;;;3.25;;
21018;SDS011;10667;51.056;3.732;2024-02-04T11:41:21;11.98;;;3.63;;
21018;SDS011;10667;51.056;3.732;2024-02-04T11:43:52;11.50;;;3.70;;
21018;SDS011;10667;51.056;3.732;2024-02-04T11:46:20;9.43;;;3.08;;
21018;SDS011;10667;51.056;3.732;2024-02-04T11:48:55;9.18;;;3.70;;
21018;SDS011;10667;51.056;3.732;2024-02-04T11:51:24;10.85;;;3.10;;
21018;SDS011;10667;51.056;3.732;2024-02-04T11:53:50;11.93;;;2.38;;
21018;SDS011;10667;51.056;3.732;2024-02-04T11:56:19;8.48;;;2.47;;
21018;SDS011;10667;51.056;3.732;2024-02-04T11:58:45;14.55;;;2.85;;
21018;SDS011;10667;51.056;3.732;2024-02-04T12:01:11;7.70;;;2.67;;
21018;SDS011;10667;51.056;3.732;2024-02-04T12:03:38;9.60;;;2.47;;
21018;SDS011;10667;51.056;3.732;2024-02-04T12:06:03;7.40;;;2.00;;
21018;SDS011;10667;51.056;3.732;2024-02-04T12:08:30;5.65;;;2.17;;
21018;SDS011;10667;51.056;3.732;2024-02-04T12:10:59;9.45;;;2.25;;
21018;SDS011;10667;51.056;3.732;2024-02-04T12:13:25;5.43;;;2.17;;
21018;SDS011;10667;51.056;3.732;2024-02-04T12:15:53;7.68;;;2.30;;
21018;SDS011;10667;51.056;3.732;2024-02-04T12:18:19;8.73;;;2.35;;
21018;SDS011;10667;51.056;3.732;2024-02-04T12:20:46;4.32;;;2.20;;
21018;SDS011;10667;51.056;3.732;2024-02-04T12:23:14;7.65;;;1.88;;
21018;SDS011;10667;51.056;3.732;2024-02-04T12:25:40;7.32;;;2.88;;
21018;SDS011;10667;51.056;3.732;2024-02-04T12:28:05;8.32;;;2.60;;
21018;SDS011;10667;51.056;3.732;2024-02-04T12:30:32;10.48;;;2.65;;
21018;SDS011;10667;51.056;3.732;2024-02-04T12:32:59;8.18;;;2.20;;
21018;SDS011;10667;51.056;3.732;2024-02-04T12:35:26;9.13;;;2.50;;
21018;SDS011;10667;51.056;3.732;2024-02-04T12:37:53;7.60;;;2.20;;
21018;SDS011;10667;51.056;3.732;2024-02-04T12:40:30;6.22;;;2.30;;
21018;SDS011;10667;51.056;3.732;2024-02-04T12:42:56;6.30;;;2.22;;
21018;SDS011;10667;51.056;3.732;2024-02-04T12:45:22;9.30;;;2.33;;
21018;SDS011;10667;51.056;3.732;2024-02-04T12:47:49;9.00;;;1.98;;
21018;SDS011;10667;51.056;3.732;2024-02-04T12:50:20;5.40;;;2.17;;
21018;SDS011;10667;51.056;3.732;2024-02-04T12:52:46;7.25;;;2.20;;
21018;SDS011;10667;51.056;3.732;2024-02-04T12:55:31;10.15;;;2.40;;
21018;SDS011;10667;51.056;3.732;2024-02-04T12:58:04;8.45;;;2.63;;
21018;SDS011;10667;51.056;3.732;2024-02-04T13:00:34;11.70;;;3.17;;
21018;SDS011;10667;51.056;3.732;2024-02-04T13:03:01;11.25;;;2.92;;
21018;SDS011;10667;51.056;3.732;2024-02-04T13:05:30;8.98;;;3.33;;
21018;SDS011;10667;51.056;3.732;2024-02-04T13:08:00;10.38;;;3.17;;
21018;SDS011;10667;51.056;3.732;2024-02-04T13:10:34;7.75;;;3.42;;
21018;SDS011;10667;51.056;3.732;2024-02-04T13:13:01;9.60;;;2.72;;
21018;SDS011;10667;51.056;3.732;2024-02-04T13:15:30;10.07;;;3.25;;
21018;SDS011;10667;51.056;3.732;2024-02-04T13:17:57;11.55;;;2.83;;
21018;SDS011;10667;51.056;3.732;2024-02-04T13:20:23;13.20;;;3.00;;
21018;SDS011;10667;51.056;3.732;2024-02-04T13:22:48;13.38;;;3.95;;
21018;SDS011;10667;51.056;3.732;2024-02-04T13:25:14;13.50;;;3.25;;
21018;SDS011;10667;51.056;3.732;2024-02-04T13:27:40;13.05;;;3.63;;
21018;SDS011;10667;51.056;3.732;2024-02-04T13:30:06;11.82;;;3.03;;
21018;SDS011;10667;51.056;3.732;2024-02-04T13:32:40;13.57;;;3.83;;
21018;SDS011;10667;51.056;3.732;2024-02-04T13:35:07;13.15;;;3.20;;
21018;SDS011;10667;51.056;3.732;2024-02-04T13:37:35;12.48;;;3.38;;
21018;SDS011;10667;51.056;3.732;2024-02-04T13:40:02;15.10;;;3.03;;
21018;SDS011;10667;51.056;3.732;2024-02-04T13:42:29;10.75;;;2.90;;
21018;SDS011;10667;51.056;3.732;2024-02-04T13:44:56;17.60;;;3.67;;
21018;SDS011;10667;51.056;3.732;2024-02-04T13:47:22;16.00;;;3.58;;
21018;SDS011;10667;51.056;3.732;2024-02-04T13:49:48;14.10;;;3.95;;
21018;SDS011;10667;51.056;3.732;2024-02-04T13:52:13;11.63;;;3.28;;
21018;SDS011;10667;51.056;3.732;2024-02-04T13:54:39;17.83;;;3.47;;
21018;SDS011;10667;51.056;3.732;2024-02-04T13:57:04;15.25;;;4.00;;
21018;SDS011;10667;51.056;3.732;2024-02-04T13:59:30;16.02;;;4.20;;
21018;SDS011;10667;51.056;3.732;2024-02-04T14:01:56;12.65;;;3.03;;
21018;SDS011;10667;51.056;3.732;2024-02-04T14:04:22;19.58;;;3.60;;
21018;SDS011;10667;51.056;3.732;2024-02-04T14:06:47;12.38;;;3.40;;
21018;SDS011;10667;51.056;3.732;2024-02-04T14:09:13;10.55;;;2.65;;
21018;SDS011;10667;51.056;3.732;2024-02-04T14:11:40;13.25;;;3.42;;
21018;SDS011;10667;51.056;3.732;2024-02-04T14:14:05;12.15;;;3.10;;
21018;SDS011;10667;51.056;3.732;2024-02-04T14:16:31;16.95;;;3.53;;
21018;SDS011;10667;51.056;3.732;2024-02-04T14:18:57;16.15;;;4.00;;
21018;SDS011;10667;51.056;3.732;2024-02-04T14:21:23;14.63;;;3.00;;
21018;SDS011;10667;51.056;3.732;2024-02-04T14:23:48;15.50;;;3.92;;
21018;SDS011;10667;51.056;3.732;2024-02-04T14:26:17;10.85;;;3.65;;
21018;SDS011;10667;51.056;3.732;2024-02-04T14:28:43;15.10;;;4.22;;
21018;SDS011;10667;51.056;3.732;2024-02-04T14:31:09;14.20;;;3.03;;
21018;SDS011;10667;51.056;3.732;2024-02-04T14:33:35;17.63;;;3.80;;
21018;SDS011;10667;51.056;3.732;2024-02-04T14:36:01;20.08;;;3.70;;
21018;SDS011;10667;51.056;3.732;2024-02-04T14:38:26;9.80;;;3.10;;
21018;SDS011;10667;51.056;3.732;2024-02-04T14:40:52;18.75;;;3.42;;